Time;durP1;ratioP1;P1;durP2;ratioP2;P2;SDS_P1;SDS_P2;PMS_P1;PMS_P2;Temp;Humidity;BMP_temperature;BMP_pressure;BME280_temperature;BME280_humidity;BME280_pressure;Samples;Min_cycle;Max_cycle;Signal;HPM_P1;HPM_P2
2022/05/06 00:00:27;;;;;;;;;19.00;13.75;;;;;;;;5054253;28;45325;-64
2022/05/06 00:02:52;;;;;;;;;14.25;14.25;;;;;;;;5027687;28;46416;-64
2022/05/06 00:05:17;;;;;;;;;16.25;14.00;;;;;;;;5034410;28;45611;-65
2022/05/06 00:07:42;;;;;;;;;22.50;20.50;;;;;;;;5034522;28;45573;-64
2022/05/06 00:10:09;;;;;;;;;17.00;16.00;;;;;;;;5035902;28;45620;-63
2022/05/06 00:12:35;;;;;;;;;20.00;19.50;;;;;;;;5053733;28;47011;-64
2022/05/06 00:15:00;;;;;;;;;21.25;20.50;;;;;;;;5028661;28;45396;-64
2022/05/06 00:17:25;;;;;;;;;20.75;20.00;;;;;;;;5034008;28;45341;-64
2022/05/06 00:19:51;;;;;;;;;21.25;18.75;;;;;;;;5031647;28;45583;-64
2022/05/06 00:22:16;;;;;;;;;20.25;20.25;;;;;;;;5034724;28;45650;-65
2022/05/06 00:24:41;;;;;;;;;13.75;12.50;;;;;;;;5035687;28;45300;-63
2022/05/06 00:27:06;;;;;;;;;21.50;19.25;;;;;;;;5034359;28;45835;-64
2022/05/06 00:29:32;;;;;;;;;17.50;15.75;;;;;;;;5034116;28;45430;-63
2022/05/06 00:31:57;;;;;;;;;13.50;13.50;;;;;;;;5033930;28;45516;-64
2022/05/06 00:34:22;;;;;;;;;14.75;14.50;;;;;;;;5034217;28;45744;-64
2022/05/06 00:36:47;;;;;;;;;17.75;17.50;;;;;;;;5036452;28;45900;-64
2022/05/06 00:39:13;;;;;;;;;20.75;19.75;;;;;;;;5034008;28;45608;-64
2022/05/06 00:41:38;;;;;;;;;21.00;19.50;;;;;;;;5032590;28;47354;-65
2022/05/06 00:44:07;;;;;;;;;21.00;19.25;;;;;;;;5048395;28;45418;-64
2022/05/06 00:46:33;;;;;;;;;22.75;22.00;;;;;;;;5033276;28;45698;-63
2022/05/06 00:48:59;;;;;;;;;17.00;15.75;;;;;;;;5036364;28;45559;-64
2022/05/06 00:51:25;;;;;;;;;18.50;17.50;;;;;;;;5033508;28;46041;-65
2022/05/06 00:53:52;;;;;;;;;17.25;16.75;;;;;;;;5033565;28;45341;-64
2022/05/06 00:56:18;;;;;;;;;19.50;16.75;;;;;;;;5032594;28;45599;-65
2022/05/06 00:58:45;;;;;;;;;21.00;20.50;;;;;;;;5032280;28;45511;-65
2022/05/06 01:01:10;;;;;;;;;16.50;15.75;;;;;;;;5034855;28;46029;-65
2022/05/06 01:03:35;;;;;;;;;22.25;19.75;;;;;;;;5033786;28;45477;-64
2022/05/06 01:06:03;;;;;;;;;10.25;10.25;;;;;;;;5033260;28;45361;-65
2022/05/06 01:08:29;;;;;;;;;18.50;18.25;;;;;;;;5033226;28;47774;-64
2022/05/06 01:10:54;;;;;;;;;21.00;20.00;;;;;;;;5033129;28;47446;-64
2022/05/06 01:13:20;;;;;;;;;22.75;22.00;;;;;;;;5033676;28;45365;-65
2022/05/06 01:15:45;;;;;;;;;23.25;21.50;;;;;;;;5035596;28;45467;-65
2022/05/06 01:18:12;;;;;;;;;23.25;20.75;;;;;;;;5028850;28;45436;-66
2022/05/06 01:20:38;;;;;;;;;19.50;19.50;;;;;;;;5025861;28;46145;-64
2022/05/06 01:23:04;;;;;;;;;21.25;21.00;;;;;;;;5033033;28;45520;-64
2022/05/06 01:25:30;;;;;;;;;19.50;19.00;;;;;;;;5032081;28;45291;-63
2022/05/06 01:27:57;;;;;;;;;20.50;15.75;;;;;;;;5030315;28;46302;-64
2022/05/06 01:30:29;;;;;;;;;19.25;17.75;;;;;;;;5030383;28;45783;-65
2022/05/06 01:32:54;;;;;;;;;23.00;21.25;;;;;;;;5032569;28;45533;-65
2022/05/06 01:35:21;;;;;;;;;19.50;18.75;;;;;;;;5032460;28;45464;-65
2022/05/06 01:37:47;;;;;;;;;24.25;23.00;;;;;;;;5031873;28;45425;-65
2022/05/06 01:40:14;;;;;;;;;22.75;20.50;;;;;;;;5046546;28;48375;-63
2022/05/06 01:42:40;;;;;;;;;21.75;21.75;;;;;;;;5045997;28;45439;-64
2022/05/06 01:45:10;;;;;;;;;18.25;18.25;;;;;;;;5028200;28;45345;-64
2022/05/06 01:47:37;;;;;;;;;26.25;23.75;;;;;;;;5030156;28;46154;-63
2022/05/06 01:50:03;;;;;;;;;18.50;17.75;;;;;;;;5030661;28;47634;-63
2022/05/06 01:52:30;;;;;;;;;23.00;23.00;;;;;;;;5032771;28;45377;-65
2022/05/06 01:54:56;;;;;;;;;26.75;23.25;;;;;;;;5033878;28;45552;-64
2022/05/06 01:57:21;;;;;;;;;23.25;20.75;;;;;;;;5032673;28;45563;-65
2022/05/06 01:59:46;;;;;;;;;28.75;25.50;;;;;;;;5026197;28;45762;-64
2022/05/06 02:02:11;;;;;;;;;25.00;22.75;;;;;;;;5046694;28;45847;-67
2022/05/06 02:07:20;;;;;;;;;24.75;24.00;;;;;;;;5033462;28;45370;-64
2022/05/06 02:09:45;;;;;;;;;23.75;23.75;;;;;;;;5030850;28;47422;-65
2022/05/06 02:12:10;;;;;;;;;23.25;20.50;;;;;;;;5030856;28;47589;-65
2022/05/06 02:14:36;;;;;;;;;25.50;22.50;;;;;;;;5032475;28;45429;-64
2022/05/06 02:17:01;;;;;;;;;27.50;25.25;;;;;;;;5029942;28;45456;-64
2022/05/06 02:19:26;;;;;;;;;28.50;25.50;;;;;;;;5046933;28;47550;-66
2022/05/06 02:21:52;;;;;;;;;23.00;20.50;;;;;;;;5044985;28;45732;-64
2022/05/06 02:24:17;;;;;;;;;23.00;22.50;;;;;;;;5029046;28;45462;-65
2022/05/06 02:26:42;;;;;;;;;23.00;23.00;;;;;;;;5030875;28;45364;-64
2022/05/06 02:29:07;;;;;;;;;25.00;22.75;;;;;;;;5047665;28;47831;-63
2022/05/06 02:34:18;;;;;;;;;22.50;20.00;;;;;;;;5030788;28;45416;-65
2022/05/06 02:36:43;;;;;;;;;25.50;22.50;;;;;;;;5031978;28;45517;-63
2022/05/06 02:39:08;;;;;;;;;31.00;27.25;;;;;;;;5031570;28;46446;-63
2022/05/06 02:41:34;;;;;;;;;26.00;22.25;;;;;;;;5032021;28;45393;-64
2022/05/06 02:43:59;;;;;;;;;23.25;20.50;;;;;;;;5031379;28;45469;-63
2022/05/06 02:46:25;;;;;;;;;25.00;25.00;;;;;;;;5031940;28;45360;-64
2022/05/06 02:48:50;;;;;;;;;28.00;26.00;;;;;;;;5034045;28;45640;-64
2022/05/06 02:51:15;;;;;;;;;29.50;26.00;;;;;;;;5031527;28;45693;-64
2022/05/06 02:53:40;;;;;;;;;27.75;25.50;;;;;;;;5031524;28;45414;-64
2022/05/06 02:56:06;;;;;;;;;22.75;20.25;;;;;;;;5030468;28;48080;-64
2022/05/06 02:58:31;;;;;;;;;27.50;25.25;;;;;;;;5046632;28;48138;-63
2022/05/06 03:00:56;;;;;;;;;24.25;24.25;;;;;;;;5043819;28;45504;-64
2022/05/06 03:03:21;;;;;;;;;28.25;23.50;;;;;;;;5028564;28;45415;-64
2022/05/06 03:05:46;;;;;;;;;28.75;27.25;;;;;;;;5031932;28;45520;-63
2022/05/06 03:08:12;;;;;;;;;24.25;23.25;;;;;;;;5031567;28;45938;-63
2022/05/06 03:10:37;;;;;;;;;27.50;25.00;;;;;;;;5031770;28;45578;-63
2022/05/06 03:13:02;;;;;;;;;27.00;26.25;;;;;;;;5033847;28;45415;-63
2022/05/06 03:15:28;;;;;;;;;25.50;25.00;;;;;;;;5031382;28;45412;-63
2022/05/06 03:17:53;;;;;;;;;24.25;22.00;;;;;;;;5031530;28;46408;-63
2022/05/06 03:20:19;;;;;;;;;23.75;23.75;;;;;;;;5030572;28;45500;-64
2022/05/06 03:22:49;;;;;;;;;19.75;17.25;;;;;;;;5030798;28;45290;-64
2022/05/06 03:25:15;;;;;;;;;26.50;23.00;;;;;;;;5031138;28;45641;-64
2022/05/06 03:30:24;;;;;;;;;27.25;24.75;;;;;;;;5032413;28;45553;-64
2022/05/06 03:32:49;;;;;;;;;27.00;25.00;;;;;;;;5034779;28;45413;-64
2022/05/06 03:35:15;;;;;;;;;22.75;21.75;;;;;;;;5033834;28;45738;-64
2022/05/06 03:37:40;;;;;;;;;28.50;25.75;;;;;;;;5033728;28;47817;-64
2022/05/06 03:40:06;;;;;;;;;24.50;22.00;;;;;;;;5036960;28;45515;-64
2022/05/06 03:42:31;;;;;;;;;26.75;24.75;;;;;;;;5033648;28;45484;-64
2022/05/06 03:44:57;;;;;;;;;21.00;19.75;;;;;;;;5034695;28;45465;-64
2022/05/06 03:47:22;;;;;;;;;25.25;24.50;;;;;;;;5034820;28;45750;-64
2022/05/06 03:51:20;;;;;;;;;28.00;23.50;;;;;;;;5034870;28;45610;-63
2022/05/06 03:52:33;;;;;;;;;32.50;28.00;;;;;;;;5034646;28;45419;-63
2022/05/06 03:54:59;;;;;;;;;26.75;25.50;;;;;;;;5036904;28;45714;-64
2022/05/06 03:57:24;;;;;;;;;27.00;25.75;;;;;;;;5029466;28;47323;-64
2022/05/06 03:59:49;;;;;;;;;26.00;25.00;;;;;;;;5027007;28;45595;-65
2022/05/06 04:02:14;;;;;;;;;31.25;26.25;;;;;;;;5034200;28;45479;-64
2022/05/06 04:04:41;;;;;;;;;29.00;26.50;;;;;;;;5033960;28;45408;-63
2022/05/06 04:07:06;;;;;;;;;28.75;24.00;;;;;;;;5036385;28;47484;-64
2022/05/06 04:09:32;;;;;;;;;29.25;25.00;;;;;;;;5034407;28;45460;-64
2022/05/06 04:11:58;;;;;;;;;22.50;22.25;;;;;;;;5034618;28;45454;-64
2022/05/06 04:14:23;;;;;;;;;27.25;24.75;;;;;;;;5032987;28;45468;-64
2022/05/06 04:16:49;;;;;;;;;25.00;23.50;;;;;;;;5034180;28;46266;-64
2022/05/06 04:19:14;;;;;;;;;27.25;25.75;;;;;;;;5035427;28;45357;-64
2022/05/06 04:24:23;;;;;;;;;25.00;20.00;;;;;;;;5034105;28;45539;-65
2022/05/06 04:26:48;;;;;;;;;23.50;22.50;;;;;;;;5033962;28;46518;-64
2022/05/06 04:29:13;;;;;;;;;25.50;24.00;;;;;;;;5034269;28;45333;-63
2022/05/06 04:31:38;;;;;;;;;26.50;24.50;;;;;;;;5034382;28;45353;-63
2022/05/06 04:34:03;;;;;;;;;23.25;20.75;;;;;;;;5036303;28;45267;-63
2022/05/06 04:36:29;;;;;;;;;27.50;26.25;;;;;;;;5033980;28;45473;-64
2022/05/06 04:38:55;;;;;;;;;24.50;21.75;;;;;;;;5033948;28;45487;-64
2022/05/06 04:41:20;;;;;;;;;37.50;27.50;;;;;;;;5033272;28;45585;-63
2022/05/06 04:43:45;;;;;;;;;27.75;25.75;;;;;;;;5033916;28;45382;-64
2022/05/06 04:46:10;;;;;;;;;31.00;26.50;;;;;;;;5048019;28;47583;-64
2022/05/06 04:48:36;;;;;;;;;30.00;26.00;;;;;;;;5033014;28;45658;-64
2022/05/06 04:51:01;;;;;;;;;27.50;25.25;;;;;;;;5032689;28;45727;-63
2022/05/06 04:53:26;;;;;;;;;28.00;25.75;;;;;;;;5032544;28;45496;-63
2022/05/06 04:55:51;;;;;;;;;25.25;24.25;;;;;;;;5033701;28;46734;-63
2022/05/06 04:58:17;;;;;;;;;33.75;28.25;;;;;;;;5034324;28;45624;-63
2022/05/06 05:00:42;;;;;;;;;28.00;23.00;;;;;;;;5035193;28;45424;-63
2022/05/06 05:03:08;;;;;;;;;30.50;29.25;;;;;;;;5032137;28;45640;-63
2022/05/06 05:05:33;;;;;;;;;29.50;25.75;;;;;;;;5028988;28;48650;-63
2022/05/06 05:07:58;;;;;;;;;28.00;26.50;;;;;;;;5019649;28;45402;-63
2022/05/06 05:10:24;;;;;;;;;25.50;24.75;;;;;;;;5033576;28;45527;-64
2022/05/06 05:12:50;;;;;;;;;30.00;28.50;;;;;;;;5035694;28;45512;-63
2022/05/06 05:15:15;;;;;;;;;12.50;8.50;;;;;;;;5033353;28;45895;-63
2022/05/06 05:17:41;;;;;;;;;32.00;30.00;;;;;;;;5033349;28;45544;-64
2022/05/06 05:20:06;;;;;;;;;34.00;31.75;;;;;;;;5048969;28;45515;-63
2022/05/06 05:22:32;;;;;;;;;32.50;30.50;;;;;;;;5030897;28;45656;-62
2022/05/06 05:24:57;;;;;;;;;30.25;27.00;;;;;;;;5034988;28;45624;-64
2022/05/06 05:27:23;;;;;;;;;29.25;28.00;;;;;;;;5032584;28;45420;-64
2022/05/06 05:29:48;;;;;;;;;31.50;26.25;;;;;;;;5032824;28;45453;-64
2022/05/06 05:32:14;;;;;;;;;26.25;26.25;;;;;;;;5032035;28;45824;-65
2022/05/06 05:34:42;;;;;;;;;25.75;24.00;;;;;;;;5032993;28;46087;-65
2022/05/06 05:37:08;;;;;;;;;32.50;31.50;;;;;;;;5034810;28;45405;-65
2022/05/06 05:39:34;;;;;;;;;24.75;24.75;;;;;;;;5033206;28;45492;-65
2022/05/06 05:42:00;;;;;;;;;25.00;25.00;;;;;;;;5032927;28;45469;-63
2022/05/06 05:49:53;;;;;;;;;22.25;21.00;;;;;;;;5033306;28;45575;-64
2022/05/06 05:52:18;;;;;;;;;29.00;25.50;;;;;;;;5032530;28;45358;-65
2022/05/06 05:54:43;;;;;;;;;27.50;24.00;;;;;;;;5033660;28;46280;-64
2022/05/06 05:57:08;;;;;;;;;25.75;24.25;;;;;;;;5028175;28;45896;-66
2022/05/06 05:59:34;;;;;;;;;24.50;24.00;;;;;;;;5023791;28;45782;-65
2022/05/06 06:02:00;;;;;;;;;28.50;26.75;;;;;;;;5032951;28;45515;-65
2022/05/06 06:04:25;;;;;;;;;21.00;18.50;;;;;;;;5032095;28;45711;-64
2022/05/06 06:06:50;;;;;;;;;26.25;24.50;;;;;;;;5034623;28;45537;-63
2022/05/06 06:09:17;;;;;;;;;26.25;25.00;;;;;;;;5032692;28;45411;-64
2022/05/06 06:11:43;;;;;;;;;28.25;24.25;;;;;;;;5030856;28;45348;-64
2022/05/06 06:14:08;;;;;;;;;30.25;27.50;;;;;;;;5030626;28;48009;-65
2022/05/06 06:16:33;;;;;;;;;25.50;23.00;;;;;;;;5032550;28;45417;-65
2022/05/06 06:18:58;;;;;;;;;29.00;28.75;;;;;;;;5034739;28;45251;-64
2022/05/06 06:21:24;;;;;;;;;30.25;24.00;;;;;;;;5032441;28;45366;-67
2022/05/06 06:23:49;;;;;;;;;29.00;24.75;;;;;;;;5032124;28;46548;-66
2022/05/06 06:26:14;;;;;;;;;27.50;24.75;;;;;;;;5032310;28;45398;-68
2022/05/06 06:28:40;;;;;;;;;33.50;29.50;;;;;;;;5032155;28;45386;-68
2022/05/06 06:31:05;;;;;;;;;31.00;25.25;;;;;;;;5034685;28;45836;-67
2022/05/06 06:33:30;;;;;;;;;33.50;31.25;;;;;;;;5032155;28;45322;-68
2022/05/06 06:35:55;;;;;;;;;22.75;21.25;;;;;;;;5031897;28;45386;-65
2022/05/06 06:38:21;;;;;;;;;30.75;29.00;;;;;;;;5032241;28;45496;-65
2022/05/06 06:40:46;;;;;;;;;31.75;27.75;;;;;;;;5032288;28;45577;-65
2022/05/06 06:43:11;;;;;;;;;25.25;23.75;;;;;;;;5033351;28;47505;-66
2022/05/06 06:45:37;;;;;;;;;32.25;26.00;;;;;;;;5031381;28;46171;-66
2022/05/06 06:48:03;;;;;;;;;30.75;27.00;;;;;;;;5030411;28;45382;-63
2022/05/06 06:50:28;;;;;;;;;28.25;25.50;;;;;;;;5030097;28;45499;-64
2022/05/06 06:52:53;;;;;;;;;32.00;30.50;;;;;;;;5030979;28;45396;-64
2022/05/06 06:55:19;;;;;;;;;31.50;29.25;;;;;;;;5031746;28;45784;-64
2022/05/06 06:57:44;;;;;;;;;31.75;28.75;;;;;;;;5028188;28;45446;-63
2022/05/06 07:00:10;;;;;;;;;29.00;27.50;;;;;;;;5028268;28;45686;-64
2022/05/06 07:02:36;;;;;;;;;31.75;27.50;;;;;;;;5043418;28;46333;-64
2022/05/06 07:05:02;;;;;;;;;30.75;27.50;;;;;;;;5015284;28;45437;-65
2022/05/06 07:12:54;;;;;;;;;32.50;29.75;;;;;;;;5029048;28;45796;-65
2022/05/06 07:15:20;;;;;;;;;33.50;32.25;;;;;;;;5033578;28;45366;-66
2022/05/06 07:17:45;;;;;;;;;34.50;30.75;;;;;;;;5030269;28;45497;-65
2022/05/06 07:20:10;;;;;;;;;30.75;30.25;;;;;;;;5021990;28;45758;-64
2022/05/06 07:22:36;;;;;;;;;28.50;27.25;;;;;;;;5034168;28;46403;-64
2022/05/06 07:25:01;;;;;;;;;32.50;29.00;;;;;;;;5037339;28;45644;-65
2022/05/06 07:27:26;;;;;;;;;31.25;28.25;;;;;;;;5035022;28;45774;-65
2022/05/06 07:29:51;;;;;;;;;30.25;29.00;;;;;;;;5033411;28;45558;-64
2022/05/06 07:32:18;;;;;;;;;31.25;29.00;;;;;;;;5034337;28;46908;-64
2022/05/06 07:34:43;;;;;;;;;27.75;27.50;;;;;;;;5033582;28;45443;-65
2022/05/06 07:37:08;;;;;;;;;28.75;27.25;;;;;;;;5036210;28;45375;-65
2022/05/06 07:39:34;;;;;;;;;30.25;29.50;;;;;;;;5034096;28;45343;-65
2022/05/06 07:42:00;;;;;;;;;38.00;32.00;;;;;;;;5032860;28;45534;-64
2022/05/06 07:44:26;;;;;;;;;29.25;28.75;;;;;;;;5034511;28;45598;-66
2022/05/06 07:46:51;;;;;;;;;25.75;24.50;;;;;;;;5034659;28;45701;-66
2022/05/06 07:49:16;;;;;;;;;30.50;28.00;;;;;;;;5049431;28;45448;-65
2022/05/06 07:51:43;;;;;;;;;33.50;30.25;;;;;;;;5034337;28;46373;-65
2022/05/06 07:54:08;;;;;;;;;30.75;28.25;;;;;;;;5034400;28;45549;-65
2022/05/06 07:56:33;;;;;;;;;31.50;29.00;;;;;;;;5046582;28;45764;-65
2022/05/06 07:58:58;;;;;;;;;32.25;29.25;;;;;;;;5020754;28;45478;-64
2022/05/06 08:06:52;;;;;;;;;28.50;27.50;;;;;;;;5035067;28;45393;-65
2022/05/06 08:09:17;;;;;;;;;31.75;28.75;;;;;;;;5032837;28;45462;-65
2022/05/06 08:11:42;;;;;;;;;31.75;29.25;;;;;;;;5034268;28;46059;-64
2022/05/06 08:14:07;;;;;;;;;28.00;24.25;;;;;;;;5033051;28;45498;-64
2022/05/06 08:16:32;;;;;;;;;29.00;25.75;;;;;;;;5033502;28;45441;-64
2022/05/06 08:18:58;;;;;;;;;30.25;26.25;;;;;;;;5036529;28;45423;-64
2022/05/06 08:21:23;;;;;;;;;30.00;27.50;;;;;;;;5034092;28;45666;-65
2022/05/06 08:23:48;;;;;;;;;28.50;27.50;;;;;;;;5046784;28;45522;-64
2022/05/06 08:26:13;;;;;;;;;27.50;26.00;;;;;;;;5022114;28;45448;-65
2022/05/06 08:28:38;;;;;;;;;24.00;22.75;;;;;;;;5033571;28;45392;-64
2022/05/06 08:31:04;;;;;;;;;29.00;29.00;;;;;;;;5035176;28;45399;-63
2022/05/06 08:33:29;;;;;;;;;18.25;16.00;;;;;;;;5028541;28;45576;-64
2022/05/06 08:35:54;;;;;;;;;26.00;21.25;;;;;;;;5026607;28;45390;-64
2022/05/06 08:38:19;;;;;;;;;20.50;19.75;;;;;;;;5015457;28;45498;-64
2022/05/06 08:40:44;;;;;;;;;16.50;16.50;;;;;;;;5032661;28;45614;-66
2022/05/06 08:43:10;;;;;;;;;18.25;17.50;;;;;;;;5034165;28;45489;-64
2022/05/06 08:51:06;;;;;;;;;18.25;15.50;;;;;;;;5033283;28;45407;-64
2022/05/06 08:53:36;;;;;;;;;20.75;17.00;;;;;;;;5033239;28;47595;-64
2022/05/06 08:56:02;;;;;;;;;17.50;16.75;;;;;;;;5032743;28;45456;-64
2022/05/06 08:58:29;;;;;;;;;16.50;16.50;;;;;;;;5032244;28;45386;-65
2022/05/06 09:01:05;;;;;;;;;11.75;11.50;;;;;;;;5035465;28;46811;-64
2022/05/06 09:03:31;;;;;;;;;11.50;11.50;;;;;;;;5033267;28;45536;-64
2022/05/06 09:05:59;;;;;;;;;14.00;14.00;;;;;;;;5032851;28;47723;-65
2022/05/06 09:08:34;;;;;;;;;14.75;13.50;;;;;;;;5033691;28;45511;-64
2022/05/06 09:11:00;;;;;;;;;10.75;10.75;;;;;;;;5033182;28;46380;-65
2022/05/06 09:13:26;;;;;;;;;13.50;12.50;;;;;;;;5033361;28;45345;-67
2022/05/06 09:18:36;;;;;;;;;11.50;11.25;;;;;;;;5032989;28;45460;-64
2022/05/06 09:21:11;;;;;;;;;9.25;8.50;;;;;;;;5032985;28;45476;-65
2022/05/06 09:23:36;;;;;;;;;6.25;6.25;;;;;;;;5032481;28;45583;-66
2022/05/06 09:26:01;;;;;;;;;7.25;6.75;;;;;;;;5032074;28;45615;-65
2022/05/06 09:28:30;;;;;;;;;8.75;7.25;;;;;;;;5033142;28;45386;-64
2022/05/06 09:30:59;;;;;;;;;6.00;6.00;;;;;;;;5035027;28;46512;-65
2022/05/06 09:33:25;;;;;;;;;6.50;6.00;;;;;;;;5032802;28;45434;-65
2022/05/06 09:35:51;;;;;;;;;7.25;7.25;;;;;;;;5033283;28;45416;-67
2022/05/06 09:38:16;;;;;;;;;7.00;7.00;;;;;;;;5032655;28;45445;-68
2022/05/06 09:40:41;;;;;;;;;6.75;6.75;;;;;;;;5033701;28;46103;-66
2022/05/06 09:43:15;;;;;;;;;6.00;6.00;;;;;;;;5035492;28;45645;-67
2022/05/06 09:45:42;;;;;;;;;7.00;6.50;;;;;;;;5035138;28;45377;-66
2022/05/06 09:48:14;;;;;;;;;7.00;7.00;;;;;;;;5032456;28;45388;-67
2022/05/06 09:50:39;;;;;;;;;6.75;6.75;;;;;;;;5032797;28;45757;-67
2022/05/06 09:53:14;;;;;;;;;5.75;5.75;;;;;;;;5032912;28;45401;-67
2022/05/06 09:55:41;;;;;;;;;6.00;6.00;;;;;;;;5018093;28;45406;-66
2022/05/06 09:58:08;;;;;;;;;5.75;5.75;;;;;;;;5034719;28;45512;-65
2022/05/06 10:00:34;;;;;;;;;9.00;8.25;;;;;;;;5033308;28;46099;-67
2022/05/06 10:03:00;;;;;;;;;8.00;8.00;;;;;;;;5032617;28;45567;-67
2022/05/06 10:05:27;;;;;;;;;7.25;6.25;;;;;;;;5029720;28;45869;-67
2022/05/06 10:07:55;;;;;;;;;6.00;6.00;;;;;;;;5032586;28;45568;-66
2022/05/06 10:10:23;;;;;;;;;6.00;6.00;;;;;;;;5032268;28;46599;-65
2022/05/06 10:13:12;;;;;;;;;9.75;9.75;;;;;;;;5031809;28;45527;-66
2022/05/06 10:15:37;;;;;;;;;6.00;5.00;;;;;;;;5027195;28;45468;-66
2022/05/06 10:18:03;;;;;;;;;6.00;5.50;;;;;;;;5027806;28;45464;-66
2022/05/06 10:20:38;;;;;;;;;12.25;11.00;;;;;;;;5022039;28;46409;-67
2022/05/06 10:23:04;;;;;;;;;11.75;11.75;;;;;;;;5032442;28;45496;-65
2022/05/06 10:25:48;;;;;;;;;11.50;10.25;;;;;;;;5032440;28;45405;-65
2022/05/06 10:34:06;;;;;;;;;6.00;6.00;;;;;;;;5029942;28;45543;-66
2022/05/06 10:36:41;;;;;;;;;6.75;5.75;;;;;;;;5030226;28;45489;-65
2022/05/06 10:39:25;;;;;;;;;7.75;6.75;;;;;;;;5030931;28;45939;-66
2022/05/06 10:42:02;;;;;;;;;5.50;5.50;;;;;;;;5031272;28;45382;-65
2022/05/06 10:44:37;;;;;;;;;6.25;5.25;;;;;;;;5029088;28;45725;-66
2022/05/06 10:47:23;;;;;;;;;6.00;6.00;;;;;;;;5031828;28;45615;-66
2022/05/06 10:49:51;;;;;;;;;7.00;7.00;;;;;;;;5022980;28;45656;-65
2022/05/06 10:52:18;;;;;;;;;7.00;6.00;;;;;;;;5029044;28;47671;-66
2022/05/06 10:54:44;;;;;;;;;5.00;5.00;;;;;;;;5033211;28;45733;-66
2022/05/06 10:57:10;;;;;;;;;8.50;8.50;;;;;;;;5032319;28;45436;-66
2022/05/06 10:59:50;;;;;;;;;8.75;7.75;;;;;;;;5032554;28;45508;-65
2022/05/06 11:02:16;;;;;;;;;7.25;7.00;;;;;;;;5032481;28;46648;-66
2022/05/06 11:04:41;;;;;;;;;6.25;6.25;;;;;;;;5031700;28;45581;-66
2022/05/06 11:07:13;;;;;;;;;9.00;8.00;;;;;;;;5034406;28;45530;-66
2022/05/06 11:09:38;;;;;;;;;5.75;5.75;;;;;;;;5030115;28;45461;-67
2022/05/06 11:12:04;;;;;;;;;5.00;5.00;;;;;;;;5029995;28;45865;-66
2022/05/06 11:14:29;;;;;;;;;5.75;5.75;;;;;;;;5031619;28;45488;-65
2022/05/06 11:17:15;;;;;;;;;5.75;5.75;;;;;;;;5031965;28;45612;-65
2022/05/06 11:19:40;;;;;;;;;5.25;5.25;;;;;;;;5029835;28;45663;-64
2022/05/06 11:22:09;;;;;;;;;6.00;6.00;;;;;;;;5033729;28;45951;-65
2022/05/06 11:24:34;;;;;;;;;3.00;3.00;;;;;;;;5032184;28;45513;-64
2022/05/06 11:27:20;;;;;;;;;6.00;6.00;;;;;;;;5031514;28;45492;-65
2022/05/06 11:29:48;;;;;;;;;7.00;6.75;;;;;;;;5046274;28;45546;-66
2022/05/06 11:32:14;;;;;;;;;6.25;6.25;;;;;;;;5031246;28;46130;-67
2022/05/06 11:34:42;;;;;;;;;6.50;6.50;;;;;;;;5030970;28;45452;-65
2022/05/06 11:37:08;;;;;;;;;4.50;4.50;;;;;;;;5033651;28;45597;-65
2022/05/06 11:39:33;;;;;;;;;5.50;5.00;;;;;;;;5030153;28;46202;-65
2022/05/06 11:42:17;;;;;;;;;4.50;4.50;;;;;;;;5031239;28;45823;-64
2022/05/06 11:47:29;;;;;;;;;5.25;5.25;;;;;;;;5031342;28;45691;-66
2022/05/06 11:49:55;;;;;;;;;5.00;4.00;;;;;;;;5031577;28;45397;-67
2022/05/06 11:52:20;;;;;;;;;5.00;5.00;;;;;;;;5031340;28;47481;-67
2022/05/06 11:54:46;;;;;;;;;3.75;3.75;;;;;;;;5036470;28;45381;-66
2022/05/06 11:57:13;;;;;;;;;4.00;4.00;;;;;;;;5034798;28;45326;-67
2022/05/06 11:59:38;;;;;;;;;4.00;4.00;;;;;;;;5034729;28;45512;-67
2022/05/06 12:02:07;;;;;;;;;4.75;4.75;;;;;;;;5033091;28;46460;-66
2022/05/06 12:04:33;;;;;;;;;4.25;4.25;;;;;;;;5034294;28;45293;-67
2022/05/06 12:06:58;;;;;;;;;4.00;4.00;;;;;;;;5036256;28;45378;-65
2022/05/06 12:09:28;;;;;;;;;4.00;4.00;;;;;;;;5034472;28;45419;-66
2022/05/06 12:12:03;;;;;;;;;3.25;3.25;;;;;;;;5034493;28;45673;-66
2022/05/06 12:14:28;;;;;;;;;4.75;4.75;;;;;;;;5033352;28;46867;-67
2022/05/06 12:16:57;;;;;;;;;3.25;3.25;;;;;;;;5034477;28;45453;-65
2022/05/06 12:19:41;;;;;;;;;4.00;4.00;;;;;;;;5034698;28;45386;-67
2022/05/06 12:22:07;;;;;;;;;5.50;3.75;;;;;;;;5030860;28;48615;-66
2022/05/06 12:24:50;;;;;;;;;4.50;4.25;;;;;;;;5029375;28;45537;-67
2022/05/06 12:27:25;;;;;;;;;5.00;5.00;;;;;;;;5031841;28;45534;-68
2022/05/06 12:29:51;;;;;;;;;3.75;3.75;;;;;;;;5029925;28;45447;-67
2022/05/06 12:32:16;;;;;;;;;5.50;4.25;;;;;;;;5022301;28;47386;-67
2022/05/06 12:34:41;;;;;;;;;5.00;5.00;;;;;;;;5034099;28;45424;-67
2022/05/06 12:37:12;;;;;;;;;4.00;4.00;;;;;;;;5036491;28;45590;-69
2022/05/06 12:39:41;;;;;;;;;2.00;2.00;;;;;;;;5033504;28;45667;-65
2022/05/06 12:42:17;;;;;;;;;4.75;3.00;;;;;;;;5032280;28;45448;-67
2022/05/06 12:44:43;;;;;;;;;3.00;2.25;;;;;;;;5033622;28;45503;-68
2022/05/06 12:50:02;;;;;;;;;2.00;2.00;;;;;;;;5021585;28;45574;-67
2022/05/06 12:52:27;;;;;;;;;3.50;3.50;;;;;;;;5033831;28;46253;-67
2022/05/06 12:54:52;;;;;;;;;3.00;3.00;;;;;;;;5035875;28;45342;-68
2022/05/06 12:57:18;;;;;;;;;2.00;2.00;;;;;;;;5033750;28;45444;-67
2022/05/06 12:59:43;;;;;;;;;2.25;2.25;;;;;;;;5033799;28;45610;-63
2022/05/06 13:02:08;;;;;;;;;2.50;2.50;;;;;;;;5033346;28;46414;-67
2022/05/06 13:04:33;;;;;;;;;4.00;4.00;;;;;;;;5033645;28;45598;-67
2022/05/06 13:06:59;;;;;;;;;2.00;2.00;;;;;;;;5036063;28;45580;-67
2022/05/06 13:09:24;;;;;;;;;1.00;1.00;;;;;;;;5033635;28;45466;-65
2022/05/06 13:11:50;;;;;;;;;1.75;1.75;;;;;;;;5033412;28;46464;-66
2022/05/06 13:14:15;;;;;;;;;1.00;1.00;;;;;;;;5033534;28;45452;-66
2022/05/06 13:16:40;;;;;;;;;2.00;2.00;;;;;;;;5033823;28;45488;-67
2022/05/06 13:19:09;;;;;;;;;3.00;2.25;;;;;;;;5035871;28;45404;-66
2022/05/06 13:21:34;;;;;;;;;4.00;2.25;;;;;;;;5032707;28;46710;-65
2022/05/06 13:23:59;;;;;;;;;2.00;2.00;;;;;;;;5032992;28;45406;-67
2022/05/06 13:26:25;;;;;;;;;2.00;2.00;;;;;;;;5033652;28;45381;-66
2022/05/06 13:28:50;;;;;;;;;2.00;2.00;;;;;;;;5030529;28;45476;-66
2022/05/06 13:31:15;;;;;;;;;3.00;3.00;;;;;;;;5032722;28;46984;-66
2022/05/06 13:33:40;;;;;;;;;2.00;2.00;;;;;;;;5031158;28;45649;-65
2022/05/06 13:36:06;;;;;;;;;3.50;3.00;;;;;;;;5033778;28;45702;-66
2022/05/06 13:38:31;;;;;;;;;2.00;2.00;;;;;;;;5028368;28;45514;-65
2022/05/06 13:40:56;;;;;;;;;2.00;2.00;;;;;;;;5040185;28;46440;-66
2022/05/06 13:43:21;;;;;;;;;4.25;2.50;;;;;;;;5035246;28;45617;-66
2022/05/06 13:45:47;;;;;;;;;4.75;3.50;;;;;;;;5038812;28;45432;-66
2022/05/06 13:48:12;;;;;;;;;4.25;3.50;;;;;;;;5035258;28;45366;-67
2022/05/06 13:50:37;;;;;;;;;2.00;2.00;;;;;;;;5030858;28;45396;-65
2022/05/06 13:53:03;;;;;;;;;1.00;1.00;;;;;;;;5040398;28;45468;-64
2022/05/06 13:59:04;;;;;;;;;4.00;2.00;;;;;;;;5034655;28;45449;-66
2022/05/06 14:00:57;;;;;;;;;2.00;2.00;;;;;;;;5032210;28;45752;-66
2022/05/06 14:03:25;;;;;;;;;1.00;1.00;;;;;;;;5034450;28;45382;-65
2022/05/06 14:05:51;;;;;;;;;1.25;1.25;;;;;;;;5036262;28;45459;-65
2022/05/06 14:08:16;;;;;;;;;1.00;1.00;;;;;;;;5022287;28;45604;-65
2022/05/06 14:10:41;;;;;;;;;3.00;3.00;;;;;;;;5036093;28;47445;-64
2022/05/06 14:13:07;;;;;;;;;3.75;3.00;;;;;;;;5034972;28;45771;-65
2022/05/06 14:15:34;;;;;;;;;2.50;2.50;;;;;;;;5034219;28;45555;-65
2022/05/06 14:17:59;;;;;;;;;6.00;5.00;;;;;;;;5033861;28;45488;-66
2022/05/06 14:20:24;;;;;;;;;2.50;2.50;;;;;;;;5043220;28;47434;-65
2022/05/06 14:22:50;;;;;;;;;3.50;3.00;;;;;;;;5034478;28;45486;-66
2022/05/06 14:25:16;;;;;;;;;2.00;2.00;;;;;;;;5033458;28;45479;-65
2022/05/06 14:27:42;;;;;;;;;3.50;3.50;;;;;;;;5035223;28;45527;-66
2022/05/06 14:30:09;;;;;;;;;3.00;3.00;;;;;;;;5034745;28;45855;-66
2022/05/06 14:32:34;;;;;;;;;4.00;3.25;;;;;;;;5030885;28;45420;-65
2022/05/06 14:35:16;;;;;;;;;3.75;3.75;;;;;;;;5038057;28;45697;-65
2022/05/06 14:37:49;;;;;;;;;3.00;3.00;;;;;;;;5047823;28;45492;-66
2022/05/06 14:40:16;;;;;;;;;3.00;3.00;;;;;;;;5053829;28;47542;-66
2022/05/06 14:42:42;;;;;;;;;1.75;1.75;;;;;;;;5031601;28;45591;-66
2022/05/06 14:45:08;;;;;;;;;3.25;3.25;;;;;;;;5023577;28;45710;-65
2022/05/06 14:47:33;;;;;;;;;2.75;2.75;;;;;;;;5038534;28;45554;-66
2022/05/06 14:49:58;;;;;;;;;2.00;2.00;;;;;;;;5013319;28;47157;-66
2022/05/06 14:52:24;;;;;;;;;2.25;2.25;;;;;;;;5040997;28;45642;-67
2022/05/06 14:54:52;;;;;;;;;2.25;2.00;;;;;;;;5032319;28;45538;-66
2022/05/06 14:57:17;;;;;;;;;3.50;3.50;;;;;;;;5032926;28;45491;-64
2022/05/06 14:59:43;;;;;;;;;2.25;2.25;;;;;;;;5038101;28;46498;-66
2022/05/06 15:02:08;;;;;;;;;3.00;3.00;;;;;;;;5030689;28;45423;-64
2022/05/06 15:04:34;;;;;;;;;3.75;3.00;;;;;;;;5030002;28;45675;-65
2022/05/06 15:06:59;;;;;;;;;2.00;2.00;;;;;;;;5029848;28;45904;-64
2022/05/06 15:09:24;;;;;;;;;2.00;2.00;;;;;;;;5032261;28;47351;-65
2022/05/06 15:11:50;;;;;;;;;1.25;1.25;;;;;;;;5034572;28;45556;-63